createdAt,value
2022-08-12T00:02:07.112Z,6.60
2022-08-12T00:07:12.595Z,6.28
2022-08-12T00:12:17.491Z,5.90
2022-08-12T00:17:23.316Z,5.85
2022-08-12T00:22:28.851Z,5.97
2022-08-12T00:27:44.129Z,6.13
2022-08-12T00:32:56.596Z,5.50
2022-08-12T00:38:03.979Z,7.05
2022-08-12T00:43:10.154Z,6.25
2022-08-12T00:48:14.295Z,6.20
2022-08-12T00:53:19.127Z,5.82
2022-08-12T00:58:25.442Z,5.60
2022-08-12T01:03:29.200Z,6.22
2022-08-12T01:08:32.814Z,6.65
2022-08-12T01:13:40.807Z,5.88
2022-08-12T01:18:52.171Z,5.68
2022-08-12T01:24:30.704Z,6.20
2022-08-12T01:29:42.924Z,5.38
2022-08-12T01:34:58.013Z,5.38
2022-08-12T01:40:35.754Z,5.60
2022-08-12T01:45:29.182Z,5.10
2022-08-12T01:52:15.916Z,5.75
2022-08-12T01:56:59.541Z,5.05
2022-08-12T02:02:08.823Z,5.93
2022-08-12T02:07:34.545Z,5.70
2022-08-12T02:13:06.932Z,7.07
2022-08-12T02:23:17.661Z,5.38
2022-08-12T02:28:22.282Z,5.43
2022-08-12T02:33:26.489Z,5.60
2022-08-12T02:38:30.826Z,5.78
2022-08-12T02:43:45.762Z,5.95
2022-08-12T02:48:58.219Z,6.63
2022-08-12T02:54:06.198Z,6.07
2022-08-12T02:59:16.622Z,5.78
2022-08-12T03:04:33.159Z,6.13
2022-08-12T03:10:04.032Z,6.10
2022-08-12T03:15:12.501Z,6.25
2022-08-12T03:20:17.744Z,6.13
2022-08-12T03:25:24.428Z,5.45
2022-08-12T03:30:32.445Z,6.85
2022-08-12T03:35:41.219Z,7.68
2022-08-12T03:40:59.797Z,6.13
2022-08-12T03:46:10.635Z,5.78
2022-08-12T03:51:14.123Z,5.68
2022-08-12T03:56:26.165Z,5.88
2022-08-12T04:01:31.559Z,6.68
2022-08-12T04:06:45.095Z,6.75
2022-08-12T04:11:50.888Z,6.30
2022-08-12T04:16:59.872Z,7.05
2022-08-12T04:22:04.141Z,6.47
2022-08-12T04:27:10.533Z,6.03
2022-08-12T04:32:14.583Z,5.75
2022-08-12T04:37:18.534Z,7.10
2022-08-12T04:42:22.674Z,6.32
2022-08-12T04:47:26.455Z,6.38
2022-08-12T04:52:34.748Z,5.30
2022-08-12T04:57:39.203Z,5.55
2022-08-12T05:02:43.183Z,5.88
2022-08-12T05:07:54.271Z,6.03
2022-08-12T05:13:10.564Z,5.53
2022-08-12T05:18:19.457Z,5.28
2022-08-12T05:23:23.410Z,6.13
2022-08-12T05:28:28.096Z,4.75
2022-08-12T05:33:35.972Z,5.07
2022-08-12T05:38:44.870Z,5.07
2022-08-12T05:43:51.188Z,4.70
2022-08-12T05:48:55.865Z,4.45
2022-08-12T05:54:00.386Z,4.30
2022-08-12T05:59:06.408Z,5.07
2022-08-12T06:04:09.987Z,4.30
2022-08-12T06:09:13.298Z,4.32
2022-08-12T06:14:17.016Z,3.30
2022-08-12T06:19:20.709Z,4.28
2022-08-12T06:24:24.133Z,3.67
2022-08-12T06:30:06.931Z,3.85
2022-08-12T06:35:23.055Z,3.72
2022-08-12T06:40:15.941Z,3.10
2022-08-12T06:45:20.201Z,3.70
2022-08-12T06:50:23.813Z,3.30
2022-08-12T06:55:28.215Z,3.80
2022-08-12T07:00:52.989Z,5.63
2022-08-12T07:05:58.729Z,4.00
2022-08-12T07:11:08.516Z,4.90
2022-08-12T07:16:23.274Z,3.95
2022-08-12T07:21:57.967Z,3.80
2022-08-12T07:26:50.176Z,3.63
2022-08-12T07:31:53.685Z,4.25
2022-08-12T07:36:57.060Z,4.03
2022-08-12T07:42:00.425Z,3.53
2022-08-12T07:47:03.866Z,4.45
2022-08-12T07:52:07.346Z,3.90
2022-08-12T07:57:10.833Z,3.63
2022-08-12T08:02:15.432Z,4.13
2022-08-12T08:07:18.972Z,4.28
2022-08-12T08:12:25.298Z,3.80
2022-08-12T08:17:30.053Z,3.80
2022-08-12T08:22:40.605Z,5.00
2022-08-12T08:27:54.161Z,4.47
2022-08-12T08:32:57.722Z,4.32
2022-08-12T08:38:13.241Z,4.32
2022-08-12T08:43:19.524Z,5.18
2022-08-12T08:48:24.721Z,4.20
2022-08-12T08:53:28.146Z,4.25
2022-08-12T08:58:34.772Z,4.97
2022-08-12T09:05:09.416Z,4.45
2022-08-12T09:09:02.209Z,4.47
2022-08-12T09:14:19.004Z,4.70
2022-08-12T09:19:33.434Z,4.70
2022-08-12T09:24:36.814Z,4.63
2022-08-12T09:30:10.346Z,5.60
2022-08-12T09:35:18.685Z,4.75
2022-08-12T09:41:01.374Z,5.15
2022-08-12T09:46:11.531Z,4.10
2022-08-12T09:51:20.319Z,4.28
2022-08-12T09:56:57.388Z,5.00
2022-08-12T10:02:45.018Z,4.60
2022-08-12T10:07:24.915Z,4.15
2022-08-12T10:12:31.386Z,4.18
2022-08-12T10:17:36.776Z,6.35
2022-08-12T10:23:00.532Z,5.18
2022-08-12T10:28:24.857Z,4.55
2022-08-12T10:33:31.234Z,4.32
2022-08-12T10:38:41.493Z,4.60
2022-08-12T10:43:55.610Z,5.80
2022-08-12T10:49:06.802Z,4.93
2022-08-12T10:54:27.310Z,4.93
2022-08-12T11:00:31.587Z,4.35
2022-08-12T11:04:56.899Z,4.50
2022-08-12T11:10:02.821Z,4.53
2022-08-12T11:15:19.144Z,5.07
2022-08-12T11:20:28.977Z,5.07
2022-08-12T11:25:55.548Z,4.50
2022-08-12T11:30:58.989Z,5.05
2022-08-12T11:36:21.785Z,4.65
2022-08-12T11:41:30.837Z,4.55
2022-08-12T11:46:37.075Z,4.72
2022-08-12T11:51:42.496Z,4.50
2022-08-12T11:56:52.372Z,4.47
2022-08-12T12:02:04.698Z,4.30
2022-08-12T12:07:11.179Z,4.75
2022-08-12T12:12:14.989Z,4.55
2022-08-12T12:17:18.957Z,4.30
2022-08-12T12:22:30.833Z,4.47
2022-08-12T12:28:04.807Z,4.85
2022-08-12T12:33:10.583Z,4.53
2022-08-12T12:38:25.199Z,5.00
2022-08-12T12:43:42.795Z,4.07
2022-08-12T12:48:48.428Z,4.60
2022-08-12T12:54:07.152Z,4.55
2022-08-12T12:59:55.057Z,5.00
2022-08-12T13:04:37.808Z,4.38
2022-08-12T13:09:46.623Z,4.28
2022-08-12T13:14:50.165Z,4.25
2022-08-12T13:19:53.716Z,4.45
2022-08-12T13:24:59.166Z,4.75
2022-08-12T13:30:11.366Z,5.40
2022-08-12T13:35:20.069Z,4.57
2022-08-12T13:40:37.388Z,5.05
2022-08-12T13:45:41.916Z,4.70
2022-08-12T13:50:45.511Z,4.75
2022-08-12T13:56:01.458Z,4.78
2022-08-12T14:01:05.869Z,5.65
2022-08-12T14:06:10.043Z,4.82
2022-08-12T14:11:27.764Z,4.47
2022-08-12T14:16:37.745Z,5.75
2022-08-12T14:21:59.124Z,5.10
2022-08-12T14:27:09.338Z,5.93
2022-08-12T14:32:16.617Z,5.25
2022-08-12T14:37:56.712Z,5.85
2022-08-12T14:42:44.443Z,5.13
2022-08-12T14:47:51.247Z,6.55
2022-08-12T14:58:19.863Z,5.30
2022-08-12T15:03:52.614Z,4.90
2022-08-12T15:08:53.292Z,8.65
2022-08-12T15:13:56.572Z,5.88
2022-08-12T15:19:00.140Z,5.63
2022-08-12T15:24:04.221Z,5.97
2022-08-12T15:29:10.377Z,5.40
2022-08-12T15:34:15.448Z,6.13
2022-08-12T15:39:20.345Z,5.50
2022-08-12T15:44:38.937Z,5.75
2022-08-12T15:50:00.061Z,5.97
2022-08-12T15:55:05.904Z,6.35
2022-08-12T16:00:28.954Z,7.60
2022-08-12T16:06:17.080Z,5.47
2022-08-12T16:11:01.715Z,6.75
2022-08-12T16:16:24.180Z,6.07
2022-08-12T16:21:52.592Z,9.65
2022-08-12T16:26:54.129Z,8.85
2022-08-12T16:31:58.351Z,9.90
2022-08-12T16:37:07.505Z,7.22
2022-08-12T16:42:10.789Z,6.60
2022-08-12T16:47:18.824Z,6.00
2022-08-12T16:52:27.261Z,5.70
2022-08-12T16:57:34.761Z,6.23
2022-08-12T17:02:39.087Z,5.93
2022-08-12T17:07:47.237Z,6.45
2022-08-12T17:12:55.771Z,6.60
2022-08-12T17:18:42.414Z,11.52
2022-08-12T17:23:27.835Z,8.30
2022-08-12T17:28:53.400Z,8.20
2022-08-12T17:33:58.353Z,8.00
2022-08-12T17:39:02.743Z,7.20
2022-08-12T17:44:14.852Z,7.78
2022-08-12T17:50:01.800Z,7.63
2022-08-12T17:54:49.644Z,7.55
2022-08-12T17:59:54.048Z,7.60
2022-08-12T18:05:05.297Z,7.85
2022-08-12T18:10:15.753Z,7.10
2022-08-12T18:15:26.953Z,6.93
2022-08-12T18:20:46.089Z,6.55
2022-08-12T18:26:15.088Z,6.95
2022-08-12T18:31:16.810Z,7.30
2022-08-12T18:36:22.497Z,7.05
2022-08-12T18:41:34.274Z,6.13
2022-08-12T18:46:40.953Z,7.30
2022-08-12T18:51:49.246Z,6.22
2022-08-12T18:56:59.400Z,6.78
2022-08-12T19:02:20.629Z,6.55
2022-08-12T19:07:29.923Z,6.80
2022-08-12T19:12:57.190Z,6.47
2022-08-12T19:18:03.055Z,6.85
2022-08-12T19:23:16.491Z,7.10
2022-08-12T19:28:29.993Z,6.82
2022-08-12T19:33:48.788Z,6.68
2022-08-12T19:39:14.754Z,7.20
2022-08-12T19:49:33.437Z,6.63
2022-08-12T19:54:37.311Z,6.32
2022-08-12T20:00:04.433Z,6.90
2022-08-12T20:06:06.897Z,7.10
2022-08-12T20:10:36.259Z,6.80
2022-08-12T20:15:44.515Z,6.45
2022-08-12T20:20:49.049Z,6.13
2022-08-12T20:26:01.954Z,6.28
2022-08-12T20:31:10.928Z,5.63
2022-08-12T20:36:42.482Z,5.82
2022-08-12T20:41:38.000Z,6.00
2022-08-12T20:46:43.083Z,5.90
2022-08-12T20:51:54.788Z,5.65
2022-08-12T20:57:01.047Z,5.90
2022-08-12T21:02:05.977Z,5.90
2022-08-12T21:07:11.330Z,6.22
2022-08-12T21:12:28.021Z,4.97
2022-08-12T21:18:01.115Z,5.63
2022-08-12T21:22:56.862Z,5.20
2022-08-12T21:28:02.534Z,5.03
2022-08-12T21:33:10.713Z,5.10
2022-08-12T21:38:18.147Z,5.60
2022-08-12T21:43:22.490Z,4.57
2022-08-12T21:48:28.747Z,5.40
2022-08-12T21:54:07.408Z,5.13
2022-08-12T21:58:57.527Z,4.78
2022-08-12T22:04:11.519Z,4.65
2022-08-12T22:09:17.678Z,4.72
2022-08-12T22:14:23.863Z,4.60
2022-08-12T22:19:27.421Z,4.60
2022-08-12T22:24:31.032Z,4.10
2022-08-12T22:29:35.276Z,4.60
2022-08-12T22:34:39.258Z,4.40
2022-08-12T22:39:43.903Z,4.38
2022-08-12T22:44:52.709Z,4.20
2022-08-12T22:49:59.774Z,4.63
2022-08-12T22:55:05.570Z,4.45
2022-08-12T23:00:23.590Z,3.92
2022-08-12T23:05:57.440Z,4.50
2022-08-12T23:10:53.689Z,4.65
2022-08-12T23:15:56.858Z,4.65
2022-08-12T23:21:01.369Z,3.80
2022-08-12T23:26:05.002Z,4.03
2022-08-12T23:31:12.218Z,4.80
2022-08-12T23:36:17.723Z,4.22
2022-08-12T23:41:56.664Z,4.63
2022-08-12T23:47:15.008Z,4.22
2022-08-12T23:52:23.656Z,4.38
2022-08-12T23:58:17.427Z,4.00
